Time;durP1;ratioP1;P1;durP2;ratioP2;P2;SDS_P1;SDS_P2;PMS_P1;PMS_P2;Temp;Humidity;BMP_temperature;BMP_pressure;BME280_temperature;BME280_humidity;BME280_pressure;Samples;Min_cycle;Max_cycle;Signal;HPM_P1;HPM_P2
2023/10/01 00:00:05;;;;;;;14.95;7.10;;;;;;;;;;4957475;28;20027;-72
2023/10/01 00:02:32;;;;;;;15.07;7.43;;;;;;;;;;4958728;29;20091;-72
2023/10/01 00:04:58;;;;;;;11.57;6.70;;;;;;;;;;4957328;28;20023;-72
2023/10/01 00:07:23;;;;;;;12.93;6.95;;;;;;;;;;4957166;28;20034;-77
2023/10/01 00:09:49;;;;;;;13.55;7.43;;;;;;;;;;4957990;28;20039;-72
2023/10/01 00:12:14;;;;;;;14.02;6.68;;;;;;;;;;4957385;28;20027;-73
2023/10/01 00:14:40;;;;;;;13.77;7.35;;;;;;;;;;4957250;28;20078;-73
2023/10/01 00:17:05;;;;;;;10.73;6.00;;;;;;;;;;4961147;28;20022;-73
2023/10/01 00:19:32;;;;;;;13.15;6.57;;;;;;;;;;4975878;28;20074;-73
2023/10/01 00:21:59;;;;;;;13.27;6.55;;;;;;;;;;4975832;28;20030;-76
2023/10/01 00:24:25;;;;;;;11.88;6.70;;;;;;;;;;4975796;28;20034;-73
2023/10/01 00:26:51;;;;;;;13.27;6.50;;;;;;;;;;4975932;28;20111;-74
2023/10/01 00:29:18;;;;;;;14.10;6.13;;;;;;;;;;4975884;28;20115;-72
2023/10/01 00:31:45;;;;;;;15.10;7.13;;;;;;;;;;4975906;28;20026;-77
2023/10/01 00:34:11;;;;;;;10.95;5.97;;;;;;;;;;4976059;28;20384;-73
2023/10/01 00:36:37;;;;;;;14.15;6.95;;;;;;;;;;4977684;28;20486;-72
2023/10/01 00:39:03;;;;;;;12.48;6.43;;;;;;;;;;4978159;28;20024;-76
2023/10/01 00:41:29;;;;;;;12.68;6.18;;;;;;;;;;4977584;28;20038;-73
2023/10/01 00:43:59;;;;;;;10.23;5.85;;;;;;;;;;4976883;28;20377;-73
2023/10/01 00:46:25;;;;;;;11.00;6.25;;;;;;;;;;4978054;28;20372;-74
2023/10/01 00:48:52;;;;;;;11.32;6.60;;;;;;;;;;4978599;28;20082;-73
2023/10/01 00:51:20;;;;;;;11.13;6.00;;;;;;;;;;4977537;28;20086;-77
2023/10/01 00:53:45;;;;;;;10.82;6.30;;;;;;;;;;4977749;28;20361;-77
2023/10/01 00:56:12;;;;;;;14.05;6.53;;;;;;;;;;4977561;28;20029;-73
2023/10/01 00:58:38;;;;;;;11.82;6.00;;;;;;;;;;4977855;28;20039;-77
2023/10/01 01:01:07;;;;;;;11.07;5.53;;;;;;;;;;4977868;28;20019;-77
2023/10/01 01:03:34;;;;;;;12.05;5.85;;;;;;;;;;4978685;28;20031;-75
2023/10/01 01:08:33;;;;;;;13.38;6.20;;;;;;;;;;4977015;28;20019;-73
2023/10/01 01:11:04;;;;;;;10.85;5.40;;;;;;;;;;4977030;28;20057;-76
2023/10/01 01:13:30;;;;;;;;;;;;;;;;;;4980191;28;20038;-76
2023/10/01 01:15:57;;;;;;;11.68;5.28;;;;;;;;;;4976239;28;19910;-77
2023/10/01 01:18:26;;;;;;;9.55;5.50;;;;;;;;;;4976084;28;20019;-77
2023/10/01 01:21:09;;;;;;;12.57;5.80;;;;;;;;;;4942171;28;20019;-73
2023/10/01 09:28:19;;;;;;;4.70;3.28;;;;;;;;;;4989521;23;20189;-75
2023/10/01 09:31:26;;;;;;;3.70;3.00;;;;;;;;;;4976421;28;20430;-75
2023/10/01 09:33:52;;;;;;;3.58;3.10;;;;;;;;;;4975674;28;20045;-73
2023/10/01 09:36:38;;;;;;;4.47;2.80;;;;;;;;;;4977067;28;20105;-73
2023/10/01 09:39:06;;;;;;;4.47;3.20;;;;;;;;;;4978137;28;20026;-74
2023/10/01 09:41:40;;;;;;;4.72;3.17;;;;;;;;;;4980184;28;20375;-73
2023/10/01 09:44:07;;;;;;;5.00;2.97;;;;;;;;;;4978443;28;20109;-72
2023/10/01 09:46:34;;;;;;;3.88;2.80;;;;;;;;;;4975834;28;20625;-72
2023/10/01 09:49:02;;;;;;;4.80;3.13;;;;;;;;;;4976254;28;20035;-73
2023/10/01 09:51:34;;;;;;;3.58;2.83;;;;;;;;;;4977829;28;20085;-75
2023/10/01 09:54:03;;;;;;;4.13;2.90;;;;;;;;;;4978176;28;20023;-73
2023/10/01 09:56:30;;;;;;;4.20;2.80;;;;;;;;;;4987451;28;20019;-76
2023/10/01 09:59:01;;;;;;;4.07;2.92;;;;;;;;;;4976063;28;20467;-76
2023/10/01 10:01:30;;;;;;;4.47;3.25;;;;;;;;;;4975451;28;20077;-72
2023/10/01 10:04:04;;;;;;;4.68;3.00;;;;;;;;;;4976345;28;20483;-72
2023/10/01 10:06:31;;;;;;;4.75;3.17;;;;;;;;;;4979970;28;20427;-72
2023/10/01 10:09:06;;;;;;;4.47;3.05;;;;;;;;;;4975175;28;20598;-72
2023/10/01 10:11:36;;;;;;;4.20;3.13;;;;;;;;;;4977728;28;20034;-74
2023/10/01 10:14:25;;;;;;;3.88;3.03;;;;;;;;;;4978949;28;20031;-71
2023/10/01 10:17:18;;;;;;;4.23;2.63;;;;;;;;;;4975503;28;20035;-75
2023/10/01 10:20:24;;;;;;;4.40;3.15;;;;;;;;;;4961672;28;20039;-72
2023/10/01 10:23:29;;;;;;;4.90;2.90;;;;;;;;;;4966548;28;20024;-72
2023/10/01 10:26:12;;;;;;;4.88;3.22;;;;;;;;;;4961024;28;20034;-73
2023/10/01 10:28:55;;;;;;;5.90;3.30;;;;;;;;;;4963304;28;20497;-72
2023/10/01 10:31:33;;;;;;;4.63;2.97;;;;;;;;;;4963880;28;20031;-75
2023/10/01 10:34:21;;;;;;;4.18;2.92;;;;;;;;;;4960368;28;20491;-71
2023/10/01 10:36:53;;;;;;;4.32;2.90;;;;;;;;;;4957296;29;20037;-72
2023/10/01 10:39:49;;;;;;;3.83;2.70;;;;;;;;;;4959484;29;20066;-72
2023/10/01 10:42:28;;;;;;;3.95;2.83;;;;;;;;;;4971045;28;20047;-74
2023/10/01 10:45:24;;;;;;;3.70;3.00;;;;;;;;;;4966699;28;20109;-73
2023/10/01 10:48:02;;;;;;;3.42;2.70;;;;;;;;;;4963104;28;20023;-71
2023/10/01 10:50:49;;;;;;;5.68;2.83;;;;;;;;;;4964726;28;20034;-74
2023/10/01 10:53:37;;;;;;;3.45;2.60;;;;;;;;;;4960994;28;20027;-75
2023/10/01 10:56:08;;;;;;;4.70;2.70;;;;;;;;;;4957937;28;20030;-75
2023/10/01 10:58:39;;;;;;;4.15;2.65;;;;;;;;;;4954731;28;20023;-73
2023/10/01 11:01:15;;;;;;;6.22;3.10;;;;;;;;;;4955015;29;20071;-75
2023/10/01 11:03:55;;;;;;;6.35;3.05;;;;;;;;;;4954132;29;20081;-71
2023/10/01 11:06:29;;;;;;;3.97;2.80;;;;;;;;;;4961612;28;20078;-73
2023/10/01 11:08:56;;;;;;;3.95;2.60;;;;;;;;;;4964266;28;20057;-73
2023/10/01 11:11:25;;;;;;;4.55;2.63;;;;;;;;;;4962717;28;20023;-72
2023/10/01 11:14:00;;;;;;;3.28;2.45;;;;;;;;;;4960622;28;20063;-72
2023/10/01 11:16:33;;;;;;;3.85;2.75;;;;;;;;;;4939552;29;20035;-73
2023/10/01 11:19:12;;;;;;;8.18;3.00;;;;;;;;;;4954011;29;20677;-72
2023/10/01 11:22:00;;;;;;;4.68;2.72;;;;;;;;;;4956946;28;20031;-73
2023/10/01 11:24:46;;;;;;;5.97;2.78;;;;;;;;;;4953986;29;20027;-73
2023/10/01 11:28:05;;;;;;;4.30;2.45;;;;;;;;;;4953857;28;20067;-73
2023/10/01 11:30:27;;;;;;;4.68;2.60;;;;;;;;;;4950723;29;20043;-73
2023/10/01 11:36:07;;;;;;;4.78;2.72;;;;;;;;;;4954013;28;20039;-73
2023/10/01 11:38:35;;;;;;;4.78;3.00;;;;;;;;;;4954850;28;20041;-74
2023/10/01 11:41:07;;;;;;;4.72;2.80;;;;;;;;;;4955361;28;20027;-73
2023/10/01 11:44:00;;;;;;;3.67;2.53;;;;;;;;;;4957590;28;20027;-73
2023/10/01 11:46:34;;;;;;;3.70;2.50;;;;;;;;;;4975988;28;20081;-74
2023/10/01 11:49:06;;;;;;;4.18;2.28;;;;;;;;;;4980544;28;20038;-75
2023/10/01 11:51:38;;;;;;;4.57;2.53;;;;;;;;;;4974079;28;20034;-75
2023/10/01 11:54:10;;;;;;;6.13;2.33;;;;;;;;;;4983053;28;20120;-75
2023/10/01 11:56:37;;;;;;;3.88;2.45;;;;;;;;;;4946774;29;20404;-75
2023/10/01 11:59:05;;;;;;;5.50;2.35;;;;;;;;;;4958311;29;20283;-75
2023/10/01 12:01:39;;;;;;;4.93;2.65;;;;;;;;;;4941942;29;20028;-75
2023/10/01 12:04:07;;;;;;;4.57;2.47;;;;;;;;;;4981699;28;20034;-74
2023/10/01 12:06:38;;;;;;;10.80;2.80;;;;;;;;;;4976430;28;20510;-74
2023/10/01 12:09:04;;;;;;;4.95;2.55;;;;;;;;;;4976163;28;20030;-74
2023/10/01 12:11:31;;;;;;;6.65;2.97;;;;;;;;;;4975946;28;20031;-74
2023/10/01 12:14:06;;;;;;;4.43;2.80;;;;;;;;;;4975945;28;20027;-73
2023/10/01 12:16:39;;;;;;;5.32;2.95;;;;;;;;;;4964144;28;20051;-73
2023/10/01 12:19:24;;;;;;;4.78;2.83;;;;;;;;;;4975942;28;20603;-74
2023/10/01 12:22:05;;;;;;;4.13;2.80;;;;;;;;;;4975906;28;20031;-74
2023/10/01 12:24:40;;;;;;;5.68;2.50;;;;;;;;;;4975742;28;20102;-73
2023/10/01 12:27:11;;;;;;;2.17;1.95;;;;;;;;;;4977248;28;20516;-74
2023/10/01 12:29:43;;;;;;;9.30;2.95;;;;;;;;;;4983753;28;20030;-74
2023/10/01 12:32:14;;;;;;;6.00;2.78;;;;;;;;;;4975670;28;20033;-76
2023/10/01 12:34:42;;;;;;;5.10;2.38;;;;;;;;;;4980948;28;20023;-71
2023/10/01 12:37:35;;;;;;;10.45;2.63;;;;;;;;;;4992386;28;20057;-74
2023/10/01 12:40:14;;;;;;;4.03;2.28;;;;;;;;;;4993782;28;20030;-71
2023/10/01 12:42:40;;;;;;;4.00;2.47;;;;;;;;;;4992596;28;20030;-72
2023/10/01 12:45:19;;;;;;;3.38;2.40;;;;;;;;;;4993211;28;20045;-72
2023/10/01 12:47:51;;;;;;;8.15;2.97;;;;;;;;;;4992127;28;20030;-71
2023/10/01 12:50:29;;;;;;;5.05;2.75;;;;;;;;;;4993958;28;20018;-72
2023/10/01 12:55:42;;;;;;;7.60;4.18;;;;;;;;;;4994418;28;20044;-73
2023/10/01 12:58:07;;;;;;;5.65;3.60;;;;;;;;;;4994261;28;20493;-73
2023/10/01 13:00:46;;;;;;;8.25;3.00;;;;;;;;;;4994232;28;20031;-72
2023/10/01 13:03:17;;;;;;;6.30;3.67;;;;;;;;;;4994553;28;20054;-72
2023/10/01 13:05:44;;;;;;;6.75;2.78;;;;;;;;;;4994503;28;20037;-75
2023/10/01 13:08:11;;;;;;;4.85;2.25;;;;;;;;;;4994511;28;20069;-72
2023/10/01 13:10:38;;;;;;;5.63;3.13;;;;;;;;;;4994450;28;20034;-71
2023/10/01 13:13:08;;;;;;;4.72;2.78;;;;;;;;;;4994347;28;20114;-71
2023/10/01 13:15:36;;;;;;;3.88;2.45;;;;;;;;;;4994403;28;20069;-74
2023/10/01 13:18:11;;;;;;;6.00;2.72;;;;;;;;;;4994525;28;20030;-71
2023/10/01 13:21:27;;;;;;;3.83;2.72;;;;;;;;;;4994377;28;20477;-76
2023/10/01 13:23:28;;;;;;;3.65;2.78;;;;;;;;;;4982887;28;20066;-71
2023/10/01 13:26:09;;;;;;;7.22;3.30;;;;;;;;;;4994955;28;20026;-72
2023/10/01 13:28:56;;;;;;;6.70;2.85;;;;;;;;;;4994809;28;20034;-75
2023/10/01 13:34:48;;;;;;;5.60;3.20;;;;;;;;;;4994287;28;20034;-73
2023/10/01 13:39:25;;;;;;;5.47;3.05;;;;;;;;;;4994480;28;20022;-76
2023/10/01 14:09:47;;;;;;;6.25;2.90;;;;;;;;;;4993566;28;20037;-75
2023/10/01 14:12:41;;;;;;;4.13;2.80;;;;;;;;;;4993508;28;20031;-71
2023/10/01 14:15:25;;;;;;;3.78;2.67;;;;;;;;;;4993811;28;20027;-71
2023/10/01 14:17:54;;;;;;;5.63;2.80;;;;;;;;;;4993300;28;20042;-76
2023/10/01 14:23:31;;;;;;;3.90;3.00;;;;;;;;;;4993613;28;20026;-70
2023/10/01 14:25:59;;;;;;;5.05;2.95;;;;;;;;;;4993386;28;20023;-71
2023/10/01 14:28:27;;;;;;;5.88;2.88;;;;;;;;;;4993710;28;20034;-71
2023/10/01 14:31:02;;;;;;;4.10;2.70;;;;;;;;;;4993512;28;20041;-71
2023/10/01 14:33:32;;;;;;;4.25;2.78;;;;;;;;;;4993689;28;20026;-70
2023/10/01 14:36:07;;;;;;;6.10;2.95;;;;;;;;;;4993375;28;20034;-71
2023/10/01 14:38:37;;;;;;;4.57;3.00;;;;;;;;;;4995101;28;20081;-76
2023/10/01 14:41:09;;;;;;;4.18;2.60;;;;;;;;;;4995466;28;20019;-76
2023/10/01 14:43:48;;;;;;;4.80;2.75;;;;;;;;;;4995094;28;20475;-76
2023/10/01 14:46:18;;;;;;;4.30;2.80;;;;;;;;;;4994872;28;20034;-77
2023/10/01 14:48:47;;;;;;;4.95;2.80;;;;;;;;;;4977232;28;20053;-75
2023/10/01 14:51:25;;;;;;;4.15;2.70;;;;;;;;;;4976479;28;20039;-76
2023/10/01 14:53:54;;;;;;;6.63;2.67;;;;;;;;;;4994476;28;20092;-76
2023/10/01 14:56:22;;;;;;;4.53;2.63;;;;;;;;;;4993841;28;20475;-76
2023/10/01 14:58:51;;;;;;;6.60;2.65;;;;;;;;;;4993902;28;20029;-76
2023/10/01 15:01:20;;;;;;;3.85;2.45;;;;;;;;;;4993799;28;20029;-76
2023/10/01 15:03:53;;;;;;;3.30;2.47;;;;;;;;;;4993638;28;20386;-75
2023/10/01 15:06:20;;;;;;;3.90;2.80;;;;;;;;;;4993851;28;20605;-76
2023/10/01 15:08:45;;;;;;;5.15;3.10;;;;;;;;;;4992851;28;20027;-75
2023/10/01 15:11:14;;;;;;;5.60;2.80;;;;;;;;;;4992648;28;20032;-72
2023/10/01 15:13:45;;;;;;;4.53;2.85;;;;;;;;;;4992772;28;20471;-75
2023/10/01 15:16:12;;;;;;;3.55;2.45;;;;;;;;;;4993937;28;20034;-75
2023/10/01 15:18:46;;;;;;;3.42;2.63;;;;;;;;;;4996522;28;20078;-71
2023/10/01 15:21:20;;;;;;;3.75;2.60;;;;;;;;;;4996761;28;20188;-72
2023/10/01 15:24:07;;;;;;;3.80;2.50;;;;;;;;;;4978882;28;20030;-73
2023/10/01 15:26:32;;;;;;;4.40;2.75;;;;;;;;;;4996258;28;20101;-73
2023/10/01 15:29:00;;;;;;;4.68;2.72;;;;;;;;;;4996532;28;20058;-71
2023/10/01 15:31:33;;;;;;;4.80;2.50;;;;;;;;;;4996393;28;20430;-73
2023/10/01 15:34:20;;;;;;;4.55;2.55;;;;;;;;;;4996484;28;20121;-73
2023/10/01 15:36:47;;;;;;;3.17;2.60;;;;;;;;;;4996113;28;20053;-74
2023/10/01 15:42:19;;;;;;;4.15;2.53;;;;;;;;;;4996392;28;20374;-72
2023/10/01 15:44:48;;;;;;;4.30;2.53;;;;;;;;;;4995942;28;20534;-71
2023/10/01 15:47:39;;;;;;;3.90;2.85;;;;;;;;;;4995920;28;20026;-71
2023/10/01 15:50:11;;;;;;;3.10;2.33;;;;;;;;;;4996171;28;20026;-72
2023/10/01 15:52:46;;;;;;;3.95;2.67;;;;;;;;;;4996063;28;20034;-72
2023/10/01 15:55:31;;;;;;;3.70;2.63;;;;;;;;;;4995785;28;20520;-72
2023/10/01 15:58:01;;;;;;;4.15;2.72;;;;;;;;;;4995811;28;20034;-72
2023/10/01 16:00:37;;;;;;;4.22;2.67;;;;;;;;;;4995954;28;20101;-71
2023/10/01 16:03:07;;;;;;;3.88;2.90;;;;;;;;;;4995636;28;20101;-72
2023/10/01 16:05:44;;;;;;;;;;;;;;;;;;4996311;28;20033;-72
2023/10/01 16:08:17;;;;;;;5.07;2.90;;;;;;;;;;4995802;28;20278;-71
2023/10/01 16:10:44;;;;;;;3.88;2.63;;;;;;;;;;4995456;28;20036;-72
2023/10/01 16:13:15;;;;;;;3.78;2.65;;;;;;;;;;4995467;28;20529;-71
2023/10/01 16:15:51;;;;;;;3.92;2.70;;;;;;;;;;4995409;28;20546;-72
2023/10/01 16:18:18;;;;;;;3.47;2.53;;;;;;;;;;4995422;28;20057;-72
2023/10/01 16:20:44;;;;;;;3.78;2.40;;;;;;;;;;4995294;28;20033;-71
2023/10/01 16:23:15;;;;;;;3.55;2.38;;;;;;;;;;4995300;28;20410;-72
2023/10/01 16:25:42;;;;;;;3.30;2.47;;;;;;;;;;4995296;28;20034;-72
2023/10/01 16:28:19;;;;;;;3.80;2.78;;;;;;;;;;4994559;28;20384;-72
2023/10/01 16:31:01;;;;;;;2.90;2.50;;;;;;;;;;4995107;28;20022;-72
2023/10/01 16:33:40;;;;;;;3.03;2.53;;;;;;;;;;4995172;28;20229;-72
2023/10/01 16:36:07;;;;;;;4.05;2.75;;;;;;;;;;4995335;28;20027;-72
2023/10/01 16:38:33;;;;;;;3.63;2.53;;;;;;;;;;4994960;28;20149;-71
2023/10/01 16:41:01;;;;;;;3.28;2.55;;;;;;;;;;4994888;28;20106;-72
2023/10/01 16:43:32;;;;;;;3.33;2.40;;;;;;;;;;4995174;28;20057;-72
2023/10/01 16:46:01;;;;;;;4.15;2.58;;;;;;;;;;4995148;28;20019;-72
2023/10/01 16:48:29;;;;;;;4.13;2.60;;;;;;;;;;4995064;28;20093;-71
2023/10/01 16:53:43;;;;;;;3.78;2.60;;;;;;;;;;4994760;28;20033;-72
2023/10/01 16:56:13;;;;;;;3.13;2.40;;;;;;;;;;4994765;28;20030;-71
2023/10/01 16:58:39;;;;;;;;;;;;;;;;;;4995045;28;20026;-72
2023/10/01 17:01:13;;;;;;;4.03;3.03;;;;;;;;;;4994563;28;19921;-72
2023/10/01 17:04:20;;;;;;;4.63;2.80;;;;;;;;;;4994867;28;20026;-72
2023/10/01 17:06:49;;;;;;;4.38;2.33;;;;;;;;;;4994459;28;20084;-72
2023/10/01 17:09:34;;;;;;;4.03;2.70;;;;;;;;;;4976928;28;20026;-72
2023/10/01 17:12:00;;;;;;;3.38;2.38;;;;;;;;;;4994268;28;20497;-71
2023/10/01 17:14:26;;;;;;;2.60;2.22;;;;;;;;;;4994591;28;20411;-71
2023/10/01 17:16:55;;;;;;;4.28;2.55;;;;;;;;;;4994224;28;20041;-71
2023/10/01 17:19:32;;;;;;;4.95;2.38;;;;;;;;;;4994240;28;20022;-72
2023/10/01 17:22:07;;;;;;;3.08;2.20;;;;;;;;;;4994029;28;20026;-72
2023/10/01 17:24:33;;;;;;;3.25;2.30;;;;;;;;;;4971086;28;20034;-72
2023/10/01 17:27:16;;;;;;;4.00;2.72;;;;;;;;;;4956129;28;20069;-72
2023/10/01 17:29:42;;;;;;;3.88;2.65;;;;;;;;;;4955338;29;20027;-71
2023/10/01 17:32:12;;;;;;;4.68;2.72;;;;;;;;;;4955252;28;20065;-71
2023/10/01 17:34:39;;;;;;;3.72;2.50;;;;;;;;;;4955200;29;20484;-70
2023/10/01 17:37:09;;;;;;;3.10;2.33;;;;;;;;;;4960845;28;20031;-71
2023/10/01 17:39:36;;;;;;;3.60;2.28;;;;;;;;;;4963900;28;20084;-71
2023/10/01 17:42:06;;;;;;;3.25;2.50;;;;;;;;;;4962676;28;20035;-70
2023/10/01 17:44:38;;;;;;;4.45;2.58;;;;;;;;;;4959127;28;20038;-70
2023/10/01 17:47:07;;;;;;;3.28;2.53;;;;;;;;;;4954926;29;20038;-71
2023/10/01 17:49:34;;;;;;;2.75;2.42;;;;;;;;;;4954673;28;20027;-72
2023/10/01 17:52:18;;;;;;;4.30;2.45;;;;;;;;;;4956209;28;20066;-71
2023/10/01 17:54:48;;;;;;;3.72;2.63;;;;;;;;;;4955061;29;20365;-72
2023/10/01 17:57:26;;;;;;;3.83;2.50;;;;;;;;;;4955091;28;20526;-71
2023/10/01 17:59:53;;;;;;;4.25;2.58;;;;;;;;;;4954813;29;20480;-71
2023/10/01 18:02:19;;;;;;;3.75;2.63;;;;;;;;;;4954731;29;20027;-71
2023/10/01 18:04:45;;;;;;;4.22;2.50;;;;;;;;;;4955024;28;20027;-72
2023/10/01 18:07:19;;;;;;;4.13;2.42;;;;;;;;;;4963120;28;20027;-71
2023/10/01 18:09:51;;;;;;;2.97;2.50;;;;;;;;;;4955472;28;20033;-71
2023/10/01 18:12:29;;;;;;;3.50;2.17;;;;;;;;;;4955103;28;20031;-72
2023/10/01 18:14:59;;;;;;;5.30;2.92;;;;;;;;;;4954566;29;20090;-72
2023/10/01 18:17:26;;;;;;;6.10;2.67;;;;;;;;;;4954649;28;20029;-72
2023/10/01 18:19:54;;;;;;;6.30;2.80;;;;;;;;;;4955264;28;20039;-72
2023/10/01 18:22:27;;;;;;;3.45;2.78;;;;;;;;;;4954345;28;20024;-72
2023/10/01 18:24:56;;;;;;;6.53;3.38;;;;;;;;;;4953908;28;20476;-72
2023/10/01 18:27:27;;;;;;;4.55;2.67;;;;;;;;;;4964181;28;20047;-71
2023/10/01 18:29:57;;;;;;;4.40;3.10;;;;;;;;;;4961897;28;20038;-71
2023/10/01 18:32:27;;;;;;;4.38;2.92;;;;;;;;;;4964580;28;20494;-71
2023/10/01 18:34:56;;;;;;;;;;;;;;;;;;4973961;28;20513;-71
2023/10/01 18:37:24;;;;;;;5.40;2.70;;;;;;;;;;4973447;28;19910;-71
2023/10/01 18:39:54;;;;;;;3.60;2.72;;;;;;;;;;4973703;28;20026;-70
2023/10/01 18:42:22;;;;;;;5.75;3.22;;;;;;;;;;4973092;28;20058;-71
2023/10/01 18:44:51;;;;;;;2.88;2.42;;;;;;;;;;4956021;28;20027;-71
2023/10/01 18:47:17;;;;;;;4.75;2.85;;;;;;;;;;4962821;28;20059;-71
2023/10/01 18:49:44;;;;;;;3.13;2.38;;;;;;;;;;4954781;28;20023;-71
2023/10/01 18:52:11;;;;;;;2.78;2.42;;;;;;;;;;4958286;29;20027;-71
2023/10/01 18:54:37;;;;;;;4.10;2.83;;;;;;;;;;4958785;28;20070;-71
2023/10/01 18:57:03;;;;;;;5.88;3.00;;;;;;;;;;4957760;29;20023;-70
2023/10/01 18:59:29;;;;;;;4.63;2.80;;;;;;;;;;4964315;28;20391;-71
2023/10/01 19:02:00;;;;;;;5.20;2.80;;;;;;;;;;4971816;28;20031;-71
2023/10/01 19:04:27;;;;;;;5.00;2.58;;;;;;;;;;4970922;28;20037;-71
2023/10/01 19:06:55;;;;;;;3.65;2.55;;;;;;;;;;4967266;28;20029;-70
2023/10/01 19:09:21;;;;;;;4.72;2.63;;;;;;;;;;4965977;28;20564;-71
2023/10/01 19:11:51;;;;;;;4.45;3.00;;;;;;;;;;4958250;28;20039;-71
2023/10/01 19:14:16;;;;;;;3.97;2.60;;;;;;;;;;4971275;28;20483;-70
2023/10/01 19:16:47;;;;;;;4.18;2.75;;;;;;;;;;4996379;28;20089;-71
2023/10/01 19:19:17;;;;;;;3.15;2.67;;;;;;;;;;4996339;28;20022;-71
2023/10/01 19:21:43;;;;;;;5.32;2.63;;;;;;;;;;4996257;28;20030;-72
2023/10/01 19:24:15;;;;;;;3.15;2.50;;;;;;;;;;4996263;28;20061;-72
2023/10/01 19:26:41;;;;;;;4.32;2.83;;;;;;;;;;4996241;28;20046;-71
2023/10/01 19:29:12;;;;;;;3.88;2.67;;;;;;;;;;4996184;28;20026;-71
2023/10/01 19:31:49;;;;;;;3.78;2.83;;;;;;;;;;4988195;28;20125;-71
2023/10/01 19:34:18;;;;;;;3.45;2.58;;;;;;;;;;4957343;29;20038;-71
2023/10/01 19:36:43;;;;;;;4.82;2.80;;;;;;;;;;4957712;28;20114;-71
2023/10/01 19:39:23;;;;;;;3.47;2.58;;;;;;;;;;4957190;28;20106;-71
2023/10/01 19:41:54;;;;;;;3.25;2.60;;;;;;;;;;4979927;28;20077;-71
2023/10/01 19:44:30;;;;;;;4.20;2.80;;;;;;;;;;4964692;28;20031;-71
2023/10/01 19:46:57;;;;;;;3.63;2.70;;;;;;;;;;4989525;28;20479;-71
2023/10/01 19:49:23;;;;;;;4.38;2.58;;;;;;;;;;4976204;28;20496;-74
2023/10/01 19:51:51;;;;;;;4.32;2.70;;;;;;;;;;4976301;28;20027;-73
2023/10/01 19:54:17;;;;;;;4.82;2.50;;;;;;;;;;4980994;28;20030;-73
2023/10/01 19:56:52;;;;;;;3.45;2.40;;;;;;;;;;4995649;28;20029;-73
2023/10/01 19:59:21;;;;;;;3.97;2.90;;;;;;;;;;4995514;28;20034;-73
2023/10/01 20:01:48;;;;;;;5.13;2.70;;;;;;;;;;4994763;28;20022;-74
2023/10/01 20:04:14;;;;;;;3.45;2.50;;;;;;;;;;4994663;28;20027;-73
2023/10/01 20:06:44;;;;;;;4.38;2.58;;;;;;;;;;4984563;28;20034;-73
2023/10/01 20:09:23;;;;;;;4.07;2.70;;;;;;;;;;4984206;28;20112;-73
2023/10/01 20:11:58;;;;;;;4.43;2.50;;;;;;;;;;4983448;28;20038;-73
2023/10/01 20:14:28;;;;;;;6.18;2.47;;;;;;;;;;4985409;28;20022;-73
2023/10/01 20:16:57;;;;;;;;;;;;;;;;;;4975412;28;20018;-71
2023/10/01 20:19:24;;;;;;;4.85;2.88;;;;;;;;;;4980929;28;19922;-73
2023/10/01 20:21:51;;;;;;;3.60;2.50;;;;;;;;;;4982167;28;20018;-74
2023/10/01 20:24:22;;;;;;;5.20;2.30;;;;;;;;;;4975392;28;20121;-73
2023/10/01 20:26:52;;;;;;;3.58;2.63;;;;;;;;;;4964953;28;20047;-73
2023/10/01 20:29:20;;;;;;;5.47;2.70;;;;;;;;;;4964687;28;20021;-72
2023/10/01 20:31:46;;;;;;;4.03;2.80;;;;;;;;;;4964311;28;20480;-72
2023/10/01 20:34:12;;;;;;;3.17;2.67;;;;;;;;;;4962625;28;20081;-74
2023/10/01 20:36:40;;;;;;;4.32;2.70;;;;;;;;;;4975743;28;20031;-71
2023/10/01 20:39:05;;;;;;;5.32;2.90;;;;;;;;;;4986689;28;20023;-70
2023/10/01 20:41:31;;;;;;;4.20;2.67;;;;;;;;;;4994705;28;20458;-72
2023/10/01 20:43:58;;;;;;;4.72;2.40;;;;;;;;;;4995107;28;20563;-70
2023/10/01 20:46:24;;;;;;;5.28;2.45;;;;;;;;;;4994688;28;20029;-71
2023/10/01 20:48:59;;;;;;;4.82;2.45;;;;;;;;;;4994741;28;20614;-71
2023/10/01 20:51:28;;;;;;;4.28;2.42;;;;;;;;;;4994620;28;20038;-73
2023/10/01 20:53:58;;;;;;;3.80;2.33;;;;;;;;;;4994960;28;20053;-73
2023/10/01 20:56:27;;;;;;;3.13;2.63;;;;;;;;;;4994629;28;20061;-74
2023/10/01 20:58:57;;;;;;;4.60;2.90;;;;;;;;;;4994490;28;20022;-72
2023/10/01 21:01:37;;;;;;;5.25;2.80;;;;;;;;;;4994741;28;20372;-71
2023/10/01 21:04:25;;;;;;;4.43;2.75;;;;;;;;;;4994739;28;20112;-73
2023/10/01 21:07:02;;;;;;;3.92;2.50;;;;;;;;;;4994462;28;20517;-70
2023/10/01 21:09:41;;;;;;;4.32;2.50;;;;;;;;;;4994432;28;20460;-71
2023/10/01 21:12:11;;;;;;;5.20;2.42;;;;;;;;;;4994293;28;20041;-70
2023/10/01 21:14:39;;;;;;;4.80;2.60;;;;;;;;;;4993214;28;20491;-71
2023/10/01 21:17:07;;;;;;;3.38;2.17;;;;;;;;;;4994438;28;20566;-70
2023/10/01 21:19:39;;;;;;;2.75;2.20;;;;;;;;;;4994339;28;20109;-70
2023/10/01 21:22:09;;;;;;;6.90;2.55;;;;;;;;;;4994263;28;20045;-68
2023/10/01 21:24:42;;;;;;;4.88;2.72;;;;;;;;;;4994343;28;20018;-70
2023/10/01 21:27:12;;;;;;;5.57;2.50;;;;;;;;;;4993608;28;20053;-69
2023/10/01 21:29:42;;;;;;;3.10;2.42;;;;;;;;;;4994019;28;20505;-71
2023/10/01 21:32:15;;;;;;;;;;;;;;;;;;4994414;28;20026;-68
2023/10/01 21:34:44;;;;;;;5.68;2.53;;;;;;;;;;4993978;28;19913;-69
2023/10/01 21:37:16;;;;;;;2.80;2.33;;;;;;;;;;4993867;28;20445;-70
2023/10/01 21:39:45;;;;;;;4.20;2.42;;;;;;;;;;4957132;28;20054;-72
2023/10/01 21:42:24;;;;;;;3.17;2.47;;;;;;;;;;4954949;28;20035;-70
2023/10/01 21:44:51;;;;;;;3.35;2.85;;;;;;;;;;4955618;28;20078;-71
2023/10/01 21:47:16;;;;;;;4.47;2.17;;;;;;;;;;4954891;28;20113;-71
2023/10/01 21:49:47;;;;;;;4.88;2.50;;;;;;;;;;4954836;29;20114;-72
2023/10/01 21:52:15;;;;;;;3.50;2.60;;;;;;;;;;4963850;28;20081;-70
2023/10/01 21:54:42;;;;;;;10.65;3.20;;;;;;;;;;4974805;28;20046;-72
2023/10/01 21:57:08;;;;;;;4.35;2.80;;;;;;;;;;4977502;28;20030;-70
2023/10/01 21:59:39;;;;;;;7.35;2.45;;;;;;;;;;4986744;28;20024;-70
2023/10/01 22:02:12;;;;;;;4.25;2.53;;;;;;;;;;4993292;28;20031;-71
2023/10/01 22:04:56;;;;;;;3.60;2.30;;;;;;;;;;4987387;28;20113;-71
2023/10/01 22:07:25;;;;;;;3.35;2.15;;;;;;;;;;4982928;28;20026;-70
2023/10/01 22:10:04;;;;;;;3.85;2.50;;;;;;;;;;4993234;28;20026;-71
2023/10/01 22:12:29;;;;;;;4.20;2.50;;;;;;;;;;4993117;28;20030;-71
2023/10/01 22:14:55;;;;;;;3.92;2.40;;;;;;;;;;4993177;28;20030;-70
2023/10/01 22:17:33;;;;;;;3.45;2.42;;;;;;;;;;4993151;28;20026;-71
2023/10/01 22:20:16;;;;;;;3.38;2.40;;;;;;;;;;4980200;28;20070;-71
2023/10/01 22:22:42;;;;;;;4.45;2.42;;;;;;;;;;4954714;29;20122;-72
2023/10/01 22:25:15;;;;;;;3.15;2.45;;;;;;;;;;4953994;28;20432;-71
2023/10/01 22:27:44;;;;;;;5.63;2.45;;;;;;;;;;4954200;29;20039;-71
2023/10/01 22:30:15;;;;;;;4.65;2.47;;;;;;;;;;4968398;28;20031;-75
2023/10/01 22:32:42;;;;;;;3.83;2.47;;;;;;;;;;4956284;28;20039;-72
2023/10/01 22:35:09;;;;;;;7.25;2.58;;;;;;;;;;4956882;28;20062;-72
2023/10/01 22:37:35;;;;;;;6.43;2.40;;;;;;;;;;4973442;28;20027;-69
2023/10/01 22:40:07;;;;;;;3.50;2.50;;;;;;;;;;4973744;28;20085;-70
2023/10/01 22:42:36;;;;;;;3.78;2.63;;;;;;;;;;4977949;28;20031;-71
2023/10/01 22:45:26;;;;;;;3.38;2.38;;;;;;;;;;4978624;28;20468;-71
2023/10/01 22:47:53;;;;;;;5.28;2.67;;;;;;;;;;4990649;28;20505;-71
2023/10/01 22:50:21;;;;;;;3.85;2.45;;;;;;;;;;4992847;28;20049;-70
2023/10/01 22:52:48;;;;;;;3.75;2.50;;;;;;;;;;4992731;28;20053;-70
2023/10/01 22:55:16;;;;;;;3.20;2.20;;;;;;;;;;4991774;28;20025;-70
2023/10/01 22:57:45;;;;;;;2.85;2.22;;;;;;;;;;4991455;28;20053;-72
2023/10/01 23:00:21;;;;;;;3.67;2.38;;;;;;;;;;4991838;28;20030;-70
2023/10/01 23:02:49;;;;;;;3.15;2.40;;;;;;;;;;4991982;28;20096;-74
2023/10/01 23:05:16;;;;;;;3.50;2.63;;;;;;;;;;4992046;28;20027;-74
2023/10/01 23:07:43;;;;;;;3.50;2.60;;;;;;;;;;4991838;28;20053;-71
2023/10/01 23:10:20;;;;;;;2.75;2.22;;;;;;;;;;4992052;28;20057;-70
2023/10/01 23:12:49;;;;;;;4.72;2.63;;;;;;;;;;4992812;28;20093;-73
2023/10/01 23:15:15;;;;;;;4.23;2.33;;;;;;;;;;4992997;28;20034;-70
2023/10/01 23:17:59;;;;;;;4.15;2.42;;;;;;;;;;4992870;28;20019;-71
2023/10/01 23:20:32;;;;;;;3.13;2.20;;;;;;;;;;4992601;28;20028;-71
2023/10/01 23:22:59;;;;;;;4.68;2.58;;;;;;;;;;4992630;28;20387;-70
2023/10/01 23:25:26;;;;;;;2.85;2.33;;;;;;;;;;4992879;28;20162;-70
2023/10/01 23:27:53;;;;;;;3.75;2.50;;;;;;;;;;4992381;28;20057;-70
2023/10/01 23:30:22;;;;;;;3.78;2.45;;;;;;;;;;4992519;28;20089;-72
2023/10/01 23:32:55;;;;;;;2.95;2.30;;;;;;;;;;4992545;28;20069;-70
2023/10/01 23:38:25;;;;;;;2.78;1.98;;;;;;;;;;4994949;28;20490;-71
2023/10/01 23:40:53;;;;;;;2.50;2.20;;;;;;;;;;4995944;28;20069;-69
2023/10/01 23:43:18;;;;;;;3.63;2.50;;;;;;;;;;4996058;28;20025;-70
2023/10/01 23:45:56;;;;;;;3.08;2.20;;;;;;;;;;4996216;28;20030;-70
2023/10/01 23:48:24;;;;;;;3.70;2.30;;;;;;;;;;4995878;28;20038;-70
2023/10/01 23:50:50;;;;;;;3.80;2.25;;;;;;;;;;4996054;28;20471;-69
2023/10/01 23:53:19;;;;;;;3.60;2.83;;;;;;;;;;4996208;28;20035;-70
2023/10/01 23:55:45;;;;;;;3.83;2.35;;;;;;;;;;4995762;28;20023;-69
2023/10/01 23:58:20;;;;;;;3.40;2.30;;;;;;;;;;4996044;28;20447;-69
